Погода Мендисна неделю

Рио-де-Жанейро, Бразилия

20 - 26 июня
  • 20июня
    Сегодня
    +15°
    +29°
    Ясно и безоблачно
    ВремяПогодаТемператураВлажностьДавлениеВетер, м/сВероятность осадков
    00:00Ясно и безоблачно+16°C85 %712 мм1.7 м/с5 %
    03:00Ясно и безоблачно+16°C82 %712 мм1.9 м/с5 %
    06:00Ясно и безоблачно+15°C84 %712 мм2.4 м/с5 %
    09:00Ясно и безоблачно+22°C66 %715 мм2.1 м/с5 %
    12:00Ясно и безоблачно+29°C43 %714 мм2.3 м/с5 %
    15:00Ясно и безоблачно+28°C39 %713 мм0.6 м/с5 %
    18:00Ясно и безоблачно+21°C65 %713 мм1.3 м/с5 %
    21:00Ясно и безоблачно+20°C62 %713 мм0.6 м/с5 %
  • 21июня
    Пятница
    +17°
    +28°
    Практически безоблачно
    ВремяПогодаТемператураВлажностьДавлениеВетер, м/сВероятность осадков
    00:00Ясно и безоблачно+16°C77 %713 мм1.5 м/с5 %
    03:00Ясно и безоблачно+15°C79 %713 мм1.5 м/с5 %
    06:00Ясно и безоблачно+15°C83 %712 мм1.9 м/с5 %
    09:00Ясно и безоблачно+22°C65 %714 мм1.7 м/с5 %
    12:00Ясно и безоблачно+28°C49 %714 мм3.4 м/с5 %
    15:00Практически безоблачно+27°C45 %713 мм2.9 м/с5 %
    18:00Ясно и безоблачно+21°C64 %712 мм1.9 м/с5 %
    21:00Ясно и безоблачно+18°C76 %713 мм1.2 м/с5 %
  • 22июня
    Суббота
    +17°
    +29°
    Облачно с прояснениями
    ВремяПогодаТемператураВлажностьДавлениеВетер, м/сВероятность осадков
    00:00Ясно и безоблачно+19°C76 %713 мм4.2 м/с5 %
    03:00Практически безоблачно+18°C86 %712 мм4.8 м/с5 %
    06:00Ясно и безоблачно+17°C90 %712 мм4.7 м/с5 %
    09:00Ясно и безоблачно+22°C76 %714 мм4.6 м/с5 %
    12:00Небольшая облачность+28°C56 %714 мм4.8 м/с5 %
    15:00Облачно с прояснениями+28°C44 %712 мм3.7 м/с5 %
    18:00Облачно с прояснениями+22°C56 %711 мм3.2 м/с5 %
    21:00Небольшая облачность+20°C63 %712 мм4.3 м/с5 %
  • 23июня
    Воскресенье
    +18°
    +31°
    Ясно и безоблачно
    ВремяПогодаТемператураВлажностьДавлениеВетер, м/сВероятность осадков
    00:00Облачно с прояснениями+19°C67 %712 мм4.8 м/с5 %
    03:00Практически безоблачно+18°C72 %711 мм5.3 м/с5 %
    06:00Практически безоблачно+17°C78 %711 мм4.8 м/с5 %
    09:00Ясно и безоблачно+22°C66 %713 мм5.1 м/с5 %
    12:00Ясно и безоблачно+29°C49 %713 мм4.3 м/с5 %
    15:00Ясно и безоблачно+31°C37 %711 мм2.3 м/с5 %
    18:00Ясно и безоблачно+25°C53 %711 мм0.6 м/с5 %
    21:00Ясно и безоблачно+22°C61 %712 мм3.6 м/с5 %
  • 24июня
    Понедельник
    +17°
    +31°
    Ясно и безоблачно
    ВремяПогодаТемператураВлажностьДавлениеВетер, м/сВероятность осадков
    00:00Ясно и безоблачно+20°C70 %711 мм4.3 м/с5 %
    03:00Ясно и безоблачно+19°C76 %710 мм4.1 м/с5 %
    06:00Ясно и безоблачно+19°C81 %711 мм4.0 м/с5 %
    09:00Ясно и безоблачно+23°C70 %712 мм4.4 м/с5 %
    12:00Ясно и безоблачно+30°C47 %713 мм3.4 м/с5 %
    15:00Ясно и безоблачно+31°C39 %711 мм1.5 м/с5 %
    18:00Ясно и безоблачно+24°C61 %710 мм2.8 м/с5 %
    21:00Ясно и безоблачно+22°C67 %711 мм3.1 м/с3 %
Мы используем cookies
Соглашаюсь